Time;durP1;ratioP1;P1;durP2;ratioP2;P2;SDS_P1;SDS_P2;PMS_P1;PMS_P2;Temp;Humidity;BMP_temperature;BMP_pressure;BME280_temperature;BME280_humidity;BME280_pressure;Samples;Min_cycle;Max_cycle;Signal;HPM_P1;HPM_P2
2022/07/14 05:46:28;;;;;;;;;;;;;;;25.73;48.80;98956.39;1720115;81;20219;-68
2022/07/14 05:48:56;;;;;;;;;;;;;;;25.61;49.46;98965.20;1683950;83;20260;-68
2022/07/14 05:51:23;;;;;;;;;;;;;;;25.45;50.17;98961.27;1655133;84;21118;-68
2022/07/14 05:53:52;;;;;;;;;;;;;;;25.34;50.91;98955.82;1669092;83;20683;-68
2022/07/14 05:56:21;;;;;;;;;;;;;;;25.25;50.49;98958.16;1663095;84;20189;-67
2022/07/14 05:58:49;;;;;;;;;;;;;;;25.10;51.22;98955.02;1679183;83;20198;-66
2022/07/14 06:01:20;;;;;;;;;;;;;;;24.95;52.23;98954.88;1690060;83;20260;-66
2022/07/14 06:03:47;;;;;;;;;;;;;;;24.90;52.67;98959.83;1731271;81;21393;-68
2022/07/14 06:06:13;;;;;;;;;;;;;;;24.70;51.13;98956.17;1716246;82;20644;-67
2022/07/14 06:08:42;;;;;;;;;;;;;;;24.39;52.02;98960.45;1715722;83;20559;-68
2022/07/14 06:11:09;;;;;;;;;;;;;;;24.19;53.74;98961.70;1692430;82;20886;-67
2022/07/14 06:13:36;;;;;;;;;;;;;;;24.17;53.79;98961.06;1687779;83;20195;-67
2022/07/14 06:16:03;;;;;;;;;;;;;;;24.10;53.84;98958.21;1687293;83;21059;-67
2022/07/14 06:18:30;;;;;;;;;;;;;;;23.94;53.66;98962.98;1708429;82;20435;-67
2022/07/14 06:20:58;;;;;;;;;;;;;;;23.85;54.32;98966.58;1712408;82;20202;-69
2022/07/14 06:23:25;;;;;;;;;;;;;;;23.78;53.87;98968.20;1692940;83;20186;-68
2022/07/14 06:25:52;;;;;;;;;;;;;;;23.67;53.94;98964.52;1676538;84;20230;-68
2022/07/14 06:28:26;;;;;;;;;;;;;;;23.54;54.67;98978.23;1693785;83;21707;-69
2022/07/14 06:31:00;;;;;;;;;;;;;;;23.44;54.19;98973.98;1626423;86;20183;-67
2022/07/14 06:33:29;;;;;;;;;;;;;;;23.25;55.44;98982.49;1648095;87;20190;-68
2022/07/14 06:35:58;;;;;;;;;;;;;;;23.15;56.87;98974.31;1639881;86;20150;-67
2022/07/14 06:38:25;;;;;;;;;;;;;;;23.10;57.31;98971.28;1649887;86;20457;-67
2022/07/14 06:40:52;;;;;;;;;;;;;;;23.00;58.10;98994.73;1628811;86;21152;-66
2022/07/14 06:43:18;;;;;;;;;;;;;;;22.92;58.20;98974.80;1628462;86;20180;-68
2022/07/14 06:45:47;;;;;;;;;;;;;;;22.78;57.10;98980.63;1631150;86;20208;-67
2022/07/14 06:48:14;;;;;;;;;;;;;;;22.57;58.47;98980.94;1632321;86;20536;-68
2022/07/14 06:50:42;;;;;;;;;;;;;;;22.45;59.96;98983.45;1652079;86;20162;-68
2022/07/14 06:53:09;;;;;;;;;;;;;;;22.42;59.13;98969.66;1626422;86;21715;-68
2022/07/14 06:55:38;;;;;;;;;;;;;;;22.39;60.23;98976.09;1660983;83;20145;-69
2022/07/14 06:58:05;;;;;;;;;;;;;;;22.39;60.25;98980.55;1697710;83;20421;-69
2022/07/14 07:00:34;;;;;;;;;;;;;;;22.37;59.97;98979.41;1692012;84;20127;-69
2022/07/14 07:03:11;;;;;;;;;;;;;;;22.31;58.13;98987.95;1681644;84;20136;-69
2022/07/14 07:08:25;;;;;;;;;;;;;;;22.03;59.51;98987.63;1723963;80;20198;-66
2022/07/14 07:11:10;;;;;;;;;;;;;;;21.98;59.21;98992.83;1729615;82;20469;-66
2022/07/14 07:13:38;;;;;;;;;;;;;;;21.97;59.38;98991.19;1711802;80;20253;-66
2022/07/14 07:16:06;;;;;;;;;;;;;;;21.98;59.58;98998.64;1716964;80;20205;-66
2022/07/14 07:18:33;;;;;;;;;;;;;;;22.07;59.53;98999.59;1691114;83;21148;-68
2022/07/14 07:21:01;;;;;;;;;;;;;;;22.19;59.06;99005.02;1674917;83;20148;-71
2022/07/14 07:23:29;;;;;;;;;;;;;;;22.22;58.31;99012.18;1659734;84;20169;-70
2022/07/14 07:25:56;;;;;;;;;;;;;;;22.25;58.74;99005.27;1663433;84;20179;-72
2022/07/14 07:28:23;;;;;;;;;;;;;;;22.29;58.94;99007.97;1668808;85;20153;-70
2022/07/14 07:30:50;;;;;;;;;;;;;;;22.33;58.76;99000.56;1661133;85;21244;-70
2022/07/14 07:33:16;;;;;;;;;;;;;;;22.34;58.84;99008.85;1659879;84;20179;-71
2022/07/14 07:35:45;;;;;;;;;;;;;;;22.36;59.13;99011.36;1678566;85;20154;-70
2022/07/14 07:38:11;;;;;;;;;;;;;;;22.38;59.47;99001.45;1696240;83;20169;-71
2022/07/14 07:40:38;;;;;;;;;;;;;;;22.38;59.70;98997.47;1654297;84;20179;-70
2022/07/14 07:43:04;;;;;;;;;;;;;;;22.39;60.27;99004.41;1698913;83;21139;-70
2022/07/14 07:45:32;;;;;;;;;;;;;;;22.38;59.98;98994.33;1720741;81;20171;-70
2022/07/14 07:48:03;;;;;;;;;;;;;;;22.36;59.79;99001.59;1725129;81;20253;-70
2022/07/14 07:50:27;;;;;;;;;;;;;;;22.31;59.22;99002.03;1735787;81;20149;-71
2022/07/14 07:52:53;;;;;;;;;;;;;;;22.33;59.47;98992.12;1724922;82;20460;-71
2022/07/14 07:55:21;;;;;;;;;;;;;;;22.44;59.97;99002.98;1742709;80;20834;-71
2022/07/14 07:57:47;;;;;;;;;;;;;;;22.54;59.42;98995.81;1730724;80;20447;-70
2022/07/14 08:00:14;;;;;;;;;;;;;;;22.68;58.67;98999.74;1714736;81;20448;-71
2022/07/14 08:02:48;;;;;;;;;;;;;;;22.83;58.02;99005.37;1727444;81;20165;-71
2022/07/14 08:05:16;;;;;;;;;;;;;;;22.97;57.14;98995.07;1723870;82;20180;-71
2022/07/14 08:07:44;;;;;;;;;;;;;;;23.10;56.23;99007.92;1715301;81;20495;-70
2022/07/14 08:10:10;;;;;;;;;;;;;;;23.18;55.98;99001.86;1725475;80;20552;-71
2022/07/14 08:12:38;;;;;;;;;;;;;;;23.25;56.30;98998.91;1718549;81;20415;-71
2022/07/14 08:15:06;;;;;;;;;;;;;;;23.38;55.60;99004.13;1694482;82;20180;-71
2022/07/14 08:17:33;;;;;;;;;;;;;;;23.50;55.40;98991.45;1713720;81;20168;-70
2022/07/14 08:20:00;;;;;;;;;;;;;;;23.59;55.09;98985.20;1721525;82;21878;-70
2022/07/14 08:22:27;;;;;;;;;;;;;;;23.67;54.36;98991.06;1732433;80;20170;-71
2022/07/14 08:24:54;;;;;;;;;;;;;;;23.65;54.15;98989.06;1734148;81;20447;-71
2022/07/14 08:27:21;;;;;;;;;;;;;;;23.68;53.90;98983.44;1712107;81;20211;-70
2022/07/14 08:29:48;;;;;;;;;;;;;;;23.77;53.75;98983.00;1734238;81;20245;-70
2022/07/14 08:32:15;;;;;;;;;;;;;;;23.81;54.38;98985.64;1726867;81;21094;-71
2022/07/14 08:34:41;;;;;;;;;;;;;;;23.86;53.64;98992.64;1719523;81;20141;-72
2022/07/14 08:37:09;;;;;;;;;;;;;;;23.86;52.48;98981.53;1724165;81;20163;-71
2022/07/14 08:39:36;;;;;;;;;;;;;;;23.88;52.20;98990.17;1713680;83;20172;-70
2022/07/14 08:42:04;;;;;;;;;;;;;;;23.98;53.10;98984.75;1708906;82;20199;-71
2022/07/14 08:44:32;;;;;;;;;;;;;;;24.13;51.48;98985.78;1707000;81;21650;-71
2022/07/14 08:46:58;;;;;;;;;;;;;;;24.20;51.38;98979.31;1731402;81;20233;-71
2022/07/14 08:49:25;;;;;;;;;;;;;;;24.18;51.12;98988.77;1708349;81;20166;-71
2022/07/14 08:51:52;;;;;;;;;;;;;;;24.22;50.72;98978.66;1709015;81;20409;-71
2022/07/14 08:54:19;;;;;;;;;;;;;;;24.28;50.69;98993.98;1727061;82;20478;-70
2022/07/14 08:56:45;;;;;;;;;;;;;;;24.27;50.56;98979.04;1698108;83;21145;-72
2022/07/14 08:59:12;;;;;;;;;;;;;;;24.37;49.98;98977.09;1692880;83;20158;-72
2022/07/14 09:01:38;;;;;;;;;;;;;;;24.53;49.28;98990.89;1672154;85;20151;-71
2022/07/14 09:04:05;;;;;;;;;;;;;;;24.62;49.57;98989.89;1689773;83;20186;-71
2022/07/14 09:06:52;;;;;;;;;;;;;;;24.62;49.24;98976.59;1658742;85;20136;-71
2022/07/14 09:09:27;;;;;;;;;;;;;;;24.67;49.69;98984.92;1706415;81;21155;-71
2022/07/14 09:12:06;;;;;;;;;;;;;;;24.66;49.27;98981.92;1744636;82;20278;-65
2022/07/14 09:17:25;;;;;;;;;;;;;;;24.51;48.95;98983.08;1707902;83;20340;-70
2022/07/14 09:20:09;;;;;;;;;;;;;;;24.42;49.23;98982.72;1717784;83;20159;-72
2022/07/14 09:22:38;;;;;;;;;;;;;;;24.49;50.19;98981.08;1700470;82;21153;-70
2022/07/14 09:25:08;;;;;;;;;;;;;;;24.64;49.45;98979.43;1701436;81;20336;-73
2022/07/14 09:27:35;;;;;;;;;;;;;;;24.83;49.43;98984.92;1712979;81;20222;-69
2022/07/14 09:30:03;;;;;;;;;;;;;;;24.98;48.32;98970.52;1747201;82;20154;-69
2022/07/14 09:32:55;;;;;;;;;;;;;;;24.95;48.27;98984.98;1747101;82;20462;-71
2022/07/14 09:35:25;;;;;;;;;;;;;;;24.94;48.71;98992.63;1728799;80;21146;-71
2022/07/14 09:37:53;;;;;;;;;;;;;;;24.94;47.43;99003.73;1713935;81;20149;-71
2022/07/14 09:40:26;;;;;;;;;;;;;;;24.88;48.40;98995.91;1688162;83;20226;-72
2022/07/14 09:42:58;;;;;;;;;;;;;;;24.89;48.56;99000.73;1702772;80;20357;-72
2022/07/14 09:45:29;;;;;;;;;;;;;;;24.96;48.40;99003.10;1724142;81;20194;-71
2022/07/14 09:47:58;;;;;;;;;;;;;;;25.14;48.00;98991.78;1717186;81;21737;-75
2022/07/14 09:50:32;;;;;;;;;;;;;;;25.31;47.58;98990.76;1721920;81;20671;-76
2022/07/14 09:52:58;;;;;;;;;;;;;;;25.41;48.05;98991.39;1725067;80;20170;-74
2022/07/14 09:55:25;;;;;;;;;;;;;;;25.53;48.30;98991.05;1738905;80;20472;-78
2022/07/14 09:57:52;;;;;;;;;;;;;;;25.60;48.04;98993.34;1722176;80;20135;-75
2022/07/14 10:00:36;;;;;;;;;;;;;;;25.56;47.32;98990.21;1741517;82;20206;-71
2022/07/14 10:03:03;;;;;;;;;;;;;;;25.45;47.19;98995.05;1721521;80;20165;-70
2022/07/14 10:05:32;;;;;;;;;;;;;;;25.36;46.08;99004.90;1730621;80;20205;-69
2022/07/14 10:08:03;;;;;;;;;;;;;;;25.33;45.44;99000.73;1693794;82;20912;-71
2022/07/14 10:10:33;;;;;;;;;;;;;;;25.40;45.02;98998.21;1673043;82;20175;-72
2022/07/14 10:13:03;;;;;;;;;;;;;;;25.61;44.89;99005.66;1661566;84;22732;-69
2022/07/14 10:15:30;;;;;;;;;;;;;;;25.74;45.12;99003.34;1654984;85;20173;-73
2022/07/14 10:17:57;;;;;;;;;;;;;;;25.78;44.27;99013.16;1668164;84;20144;-71
2022/07/14 10:20:23;;;;;;;;;;;;;;;25.76;44.37;99012.00;1659244;84;20177;-72
2022/07/14 10:22:50;;;;;;;;;;;;;;;25.81;44.30;99015.45;1664862;85;20178;-70
2022/07/14 10:25:17;;;;;;;;;;;;;;;25.83;44.53;99014.28;1677241;84;21144;-70
2022/07/14 10:27:46;;;;;;;;;;;;;;;25.73;44.67;99012.33;1665023;84;20152;-72
2022/07/14 10:30:12;;;;;;;;;;;;;;;25.67;44.17;99015.17;1654326;85;20254;-71
2022/07/14 10:33:04;;;;;;;;;;;;;;;25.64;43.43;99022.66;1671256;83;20149;-72
2022/07/14 10:35:47;;;;;;;;;;;;;;;25.55;43.33;99023.67;1670099;83;20181;-70
2022/07/14 10:38:32;;;;;;;;;;;;;;;25.39;44.60;99029.83;1663256;83;21149;-72
2022/07/14 10:41:26;;;;;;;;;;;;;;;25.28;44.69;99028.36;1655063;84;20183;-70
2022/07/14 10:44:13;;;;;;;;;;;;;;;25.21;45.38;99018.04;1687654;83;20211;-71
2022/07/14 10:46:42;;;;;;;;;;;;;;;25.26;44.24;99015.71;1658565;85;20152;-71
2022/07/14 10:49:10;;;;;;;;;;;;;;;25.40;44.27;99019.51;1659350;85;20165;-72
2022/07/14 10:51:50;;;;;;;;;;;;;;;25.50;44.02;99015.34;1647923;85;21134;-72
2022/07/14 10:54:29;;;;;;;;;;;;;;;25.54;43.61;99018.02;1632088;84;20225;-73
2022/07/14 10:57:13;;;;;;;;;;;;;;;25.58;43.82;99018.00;1663543;85;20435;-71
2022/07/14 10:59:43;;;;;;;;;;;;;;;25.65;42.09;99029.16;1656422;85;20172;-70
2022/07/14 11:02:18;;;;;;;;;;;;;;;25.67;41.77;99013.84;1659723;85;20644;-70
2022/07/14 11:05:04;;;;;;;;;;;;;;;25.76;42.03;99015.16;1653784;85;21725;-71
2022/07/14 11:07:51;;;;;;;;;;;;;;;25.89;39.96;99009.61;1655156;85;20137;-72
2022/07/14 11:10:27;;;;;;;;;;;;;;;25.98;40.10;99019.22;1676337;84;20207;-72
2022/07/14 11:13:07;;;;;;;;;;;;;;;26.06;39.78;99031.19;1654552;85;20183;-71
2022/07/14 11:15:42;;;;;;;;;;;;;;;26.09;39.27;99012.69;1678719;84;20218;-71
2022/07/14 11:18:24;;;;;;;;;;;;;;;26.11;40.74;99016.02;1656515;85;21151;-72
2022/07/14 11:20:58;;;;;;;;;;;;;;;26.17;40.28;99011.83;1679950;84;20206;-72
2022/07/14 11:23:48;;;;;;;;;;;;;;;26.21;39.83;99021.95;1714960;82;20505;-72
2022/07/14 11:26:38;;;;;;;;;;;;;;;26.21;40.07;99019.28;1745117;81;20181;-72
2022/07/14 11:29:05;;;;;;;;;;;;;;;26.21;38.64;99016.62;1757430;81;20172;-72
2022/07/14 11:31:49;;;;;;;;;;;;;;;26.23;39.79;99005.28;1757952;80;21175;-72
2022/07/14 11:37:14;;;;;;;;;;;;;;;26.40;39.21;99008.72;1754234;80;20176;-72
2022/07/14 11:39:41;;;;;;;;;;;;;;;26.53;39.71;99002.83;1727052;82;20501;-72
2022/07/14 11:42:13;;;;;;;;;;;;;;;26.69;40.29;98999.55;1683790;83;20599;-73
2022/07/14 11:44:43;;;;;;;;;;;;;;;26.90;39.78;99012.22;1709831;82;21911;-73
2022/07/14 11:47:18;;;;;;;;;;;;;;;27.00;37.95;99009.33;1712813;82;20158;-73
2022/07/14 11:49:56;;;;;;;;;;;;;;;26.93;38.08;99005.20;1752718;80;20423;-72
2022/07/14 11:52:31;;;;;;;;;;;;;;;26.82;38.58;98998.10;1753688;80;20188;-72
2022/07/14 11:54:59;;;;;;;;;;;;;;;26.75;38.34;99000.17;1709997;81;20208;-71
2022/07/14 11:57:25;;;;;;;;;;;;;;;26.82;37.92;99006.94;1707558;81;21872;-70
2022/07/14 11:59:53;;;;;;;;;;;;;;;26.95;38.64;99001.88;1714683;82;20278;-70
2022/07/14 12:02:21;;;;;;;;;;;;;;;27.06;37.48;99001.95;1689531;83;20203;-71
2022/07/14 12:04:55;;;;;;;;;;;;;;;27.07;37.88;99005.77;1713333;83;20199;-72
2022/07/14 12:07:26;;;;;;;;;;;;;;;27.02;37.46;99017.48;1723220;80;20168;-72
2022/07/14 12:09:53;;;;;;;;;;;;;;;26.92;38.09;99013.38;1717488;80;21850;-72
2022/07/14 12:12:22;;;;;;;;;;;;;;;26.82;38.11;99009.61;1712472;80;20638;-71
2022/07/14 12:14:50;;;;;;;;;;;;;;;26.78;38.50;99013.13;1719744;81;20190;-72
2022/07/14 12:17:17;;;;;;;;;;;;;;;26.90;39.06;99008.22;1743433;80;20170;-71
2022/07/14 12:19:45;;;;;;;;;;;;;;;27.12;39.00;99009.75;1734857;80;20150;-73
2022/07/14 12:22:12;;;;;;;;;;;;;;;27.25;39.24;99008.11;1718910;80;21041;-73
2022/07/14 12:24:39;;;;;;;;;;;;;;;27.26;37.69;99031.13;1704261;82;20822;-72
2022/07/14 12:27:09;;;;;;;;;;;;;;;27.19;36.66;99020.84;1693180;82;20153;-72
2022/07/14 12:29:38;;;;;;;;;;;;;;;27.19;36.95;99018.17;1719138;81;20570;-70
2022/07/14 12:32:07;;;;;;;;;;;;;;;27.26;36.76;99006.27;1714635;82;20554;-71
2022/07/14 12:34:37;;;;;;;;;;;;;;;27.28;36.89;99017.61;1721218;81;21128;-70
2022/07/14 12:37:04;;;;;;;;;;;;;;;27.25;36.47;99017.96;1717148;81;20237;-70
2022/07/14 12:39:31;;;;;;;;;;;;;;;27.19;36.18;99018.17;1718227;83;20420;-71
2022/07/14 12:42:01;;;;;;;;;;;;;;;27.10;36.12;99017.43;1716133;83;20139;-71
2022/07/14 12:44:28;;;;;;;;;;;;;;;27.01;36.50;99022.50;1695831;83;20163;-71
2022/07/14 12:47:07;;;;;;;;;;;;;;;27.00;35.39;99024.84;1717305;82;21085;-71
2022/07/14 12:49:42;;;;;;;;;;;;;;;26.94;35.87;99021.58;1715182;83;20143;-69
2022/07/14 12:52:11;;;;;;;;;;;;;;;26.92;36.72;99016.88;1703086;83;20144;-71
2022/07/14 12:54:40;;;;;;;;;;;;;;;26.97;36.61;99009.71;1712464;81;20148;-71
2022/07/14 12:57:07;;;;;;;;;;;;;;;26.97;37.16;99026.56;1703311;83;20624;-70
2022/07/14 12:59:35;;;;;;;;;;;;;;;26.97;36.01;99011.88;1685862;83;21135;-70
2022/07/14 13:02:06;;;;;;;;;;;;;;;26.99;36.54;99013.00;1731811;80;20206;-71
2022/07/14 13:04:38;;;;;;;;;;;;;;;27.01;36.40;99016.33;1695179;82;20249;-71
2022/07/14 13:07:16;;;;;;;;;;;;;;;27.07;36.45;99024.45;1717992;80;20206;-72
2022/07/14 13:10:19;;;;;;;;;;;;;;;27.09;36.41;99018.44;1721695;80;20161;-73
2022/07/14 13:12:50;;;;;;;;;;;;;;;27.10;36.95;99019.27;1744609;81;21085;-73
2022/07/14 13:15:23;;;;;;;;;;;;;;;27.10;37.43;99008.59;1734794;80;20190;-73
2022/07/14 13:17:59;;;;;;;;;;;;;;;27.12;37.96;99010.58;1725452;82;20208;-72
2022/07/14 13:20:50;;;;;;;;;;;;;;;27.15;37.21;99015.56;1726661;80;20204;-73
2022/07/14 13:23:29;;;;;;;;;;;;;;;27.17;36.49;99018.88;1698245;82;20204;-72
2022/07/14 13:26:12;;;;;;;;;;;;;;;27.11;37.00;99012.92;1693869;83;21407;-74
2022/07/14 13:28:43;;;;;;;;;;;;;;;26.99;37.25;99017.01;1664176;84;20313;-72
2022/07/14 13:31:11;;;;;;;;;;;;;;;26.88;37.94;99016.08;1665917;84;20226;-69
2022/07/14 13:33:42;;;;;;;;;;;;;;;26.75;38.10;99018.84;1667172;83;20228;-71
2022/07/14 13:36:11;;;;;;;;;;;;;;;26.65;38.66;99016.91;1669262;83;20185;-71
2022/07/14 13:38:39;;;;;;;;;;;;;;;26.66;39.34;99017.23;1665774;83;21485;-72
2022/07/14 13:41:07;;;;;;;;;;;;;;;26.76;39.55;99012.51;1656674;83;20163;-69
2022/07/14 13:43:33;;;;;;;;;;;;;;;26.89;39.18;99016.41;1647722;83;20154;-72
2022/07/14 13:46:01;;;;;;;;;;;;;;;26.97;39.18;99023.06;1652506;83;20236;-72
2022/07/14 13:48:28;;;;;;;;;;;;;;;27.05;38.82;99000.28;1674224;83;20211;-73
2022/07/14 13:53:40;;;;;;;;;;;;;;;27.02;38.55;99005.48;1663027;83;20220;-71
2022/07/14 13:56:07;;;;;;;;;;;;;;;26.94;38.74;99000.22;1715558;81;20199;-71
2022/07/14 13:58:33;;;;;;;;;;;;;;;26.98;38.93;98999.33;1700173;82;20943;-71
2022/07/14 14:01:00;;;;;;;;;;;;;;;27.02;39.15;98996.64;1738023;80;20230;-73
2022/07/14 14:03:26;;;;;;;;;;;;;;;27.05;38.88;98996.28;1746042;81;21155;-73
2022/07/14 14:05:57;;;;;;;;;;;;;;;27.03;38.71;98996.45;1735273;81;20197;-73
2022/07/14 14:08:24;;;;;;;;;;;;;;;27.01;38.71;98994.47;1698846;83;20280;-74
2022/07/14 14:10:51;;;;;;;;;;;;;;;27.02;38.43;99001.98;1696775;83;20205;-73
2022/07/14 14:13:18;;;;;;;;;;;;;;;27.09;38.92;99007.77;1693252;83;20420;-72
2022/07/14 14:15:44;;;;;;;;;;;;;;;27.17;38.44;99000.70;1704180;83;21309;-71
2022/07/14 14:18:11;;;;;;;;;;;;;;;27.20;38.65;99000.31;1697932;83;20165;-71
2022/07/14 14:20:38;;;;;;;;;;;;;;;27.19;38.32;99005.33;1723739;81;20511;-70
2022/07/14 14:23:07;;;;;;;;;;;;;;;27.08;38.03;99012.77;1732594;82;20185;-71
2022/07/14 14:25:35;;;;;;;;;;;;;;;26.97;38.20;99005.20;1717612;81;20630;-72
2022/07/14 14:28:02;;;;;;;;;;;;;;;26.94;38.32;99012.23;1678955;83;21213;-72
2022/07/14 14:30:29;;;;;;;;;;;;;;;26.97;38.37;99009.71;1729568;81;20173;-73
2022/07/14 14:32:56;;;;;;;;;;;;;;;26.97;38.62;99005.20;1708439;81;20168;-71
2022/07/14 14:35:22;;;;;;;;;;;;;;;26.96;38.33;99003.55;1707957;82;20165;-69
2022/07/14 14:37:48;;;;;;;;;;;;;;;26.87;38.28;99003.74;1747839;82;20482;-68
2022/07/14 14:40:15;;;;;;;;;;;;;;;26.72;38.82;98996.52;1751921;81;21089;-70
2022/07/14 14:42:41;;;;;;;;;;;;;;;26.63;39.72;98992.73;1741311;81;20546;-70
2022/07/14 14:45:08;;;;;;;;;;;;;;;26.57;39.50;99003.64;1713863;81;20224;-70
2022/07/14 14:47:35;;;;;;;;;;;;;;;26.57;40.12;98984.97;1686435;84;20157;-71
2022/07/14 14:50:02;;;;;;;;;;;;;;;26.63;40.21;98989.57;1685351;83;20153;-70
2022/07/14 14:52:30;;;;;;;;;;;;;;;26.64;40.04;98985.06;1701952;83;21145;-70
2022/07/14 14:54:56;;;;;;;;;;;;;;;26.65;40.51;98983.55;1673850;84;20424;-70
2022/07/14 14:57:23;;;;;;;;;;;;;;;26.69;40.49;98988.88;1720394;83;20150;-70
2022/07/14 14:59:49;;;;;;;;;;;;;;;26.73;38.99;98988.02;1699472;83;20371;-70
2022/07/14 15:02:18;;;;;;;;;;;;;;;26.75;38.63;98974.00;1700874;84;20473;-70
2022/07/14 15:04:44;;;;;;;;;;;;;;;26.76;38.65;98973.82;1694537;83;21180;-70
2022/07/14 15:07:10;;;;;;;;;;;;;;;26.80;39.20;98977.44;1676806;83;20205;-70
2022/07/14 15:09:38;;;;;;;;;;;;;;;26.83;39.55;98982.42;1680846;83;20137;-70
2022/07/14 15:12:06;;;;;;;;;;;;;;;26.85;39.15;98983.08;1704162;83;20441;-69
2022/07/14 15:14:33;;;;;;;;;;;;;;;26.81;38.78;98985.27;1667100;85;20450;-69
2022/07/14 15:16:59;;;;;;;;;;;;;;;26.76;38.91;98983.16;1653705;84;21580;-69
2022/07/14 15:19:26;;;;;;;;;;;;;;;26.67;39.31;98980.72;1712690;81;20214;-69
2022/07/14 15:21:52;;;;;;;;;;;;;;;26.62;39.58;98974.57;1725575;82;20489;-69
2022/07/14 15:24:20;;;;;;;;;;;;;;;26.63;40.02;98974.07;1725083;81;20565;-69
2022/07/14 15:26:46;;;;;;;;;;;;;;;26.68;40.60;98978.38;1682002;83;20108;-69
2022/07/14 15:29:19;;;;;;;;;;;;;;;26.74;40.41;98977.16;1694615;83;21143;-70
2022/07/14 15:31:42;;;;;;;;;;;;;;;26.78;40.94;98970.44;1693166;83;20155;-69
2022/07/14 15:34:09;;;;;;;;;;;;;;;26.82;40.59;98972.75;1698723;83;20167;-70
2022/07/14 15:36:35;;;;;;;;;;;;;;;26.84;40.81;98974.74;1710236;83;20181;-70
2022/07/14 15:41:47;;;;;;;;;;;;;;;26.80;40.95;98980.11;1731752;81;21126;-70
2022/07/14 15:44:14;;;;;;;;;;;;;;;26.75;41.17;98971.33;1731668;81;20483;-69
2022/07/14 15:46:40;;;;;;;;;;;;;;;26.71;41.23;98969.52;1723383;81;20167;-70
2022/07/14 15:49:09;;;;;;;;;;;;;;;26.66;41.74;98975.05;1744063;81;20176;-69
2022/07/14 15:51:35;;;;;;;;;;;;;;;26.60;41.87;98977.09;1712749;83;20138;-70
2022/07/14 15:54:01;;;;;;;;;;;;;;;26.55;42.11;98979.48;1707621;83;21064;-69
2022/07/14 15:56:28;;;;;;;;;;;;;;;26.53;42.26;98978.83;1706850;83;20150;-69
2022/07/14 15:58:54;;;;;;;;;;;;;;;26.53;42.76;98976.16;1706605;83;20464;-69
2022/07/14 16:01:22;;;;;;;;;;;;;;;26.52;42.52;98981.99;1686763;83;20177;-70
2022/07/14 16:03:49;;;;;;;;;;;;;;;26.50;42.52;98978.67;1682695;83;20152;-70
2022/07/14 16:06:15;;;;;;;;;;;;;;;26.46;42.60;98984.02;1680715;83;21162;-70
2022/07/14 16:08:42;;;;;;;;;;;;;;;26.42;42.20;98982.71;1689577;83;20416;-70
2022/07/14 16:11:08;;;;;;;;;;;;;;;26.37;42.41;98979.27;1719928;81;20180;-70
2022/07/14 16:13:36;;;;;;;;;;;;;;;26.35;42.10;98976.44;1692910;83;20129;-70
2022/07/14 16:16:05;;;;;;;;;;;;;;;26.30;42.38;98977.47;1713140;83;20469;-70
2022/07/14 16:18:31;;;;;;;;;;;;;;;26.26;42.74;98978.78;1684116;84;21122;-70
2022/07/14 16:20:58;;;;;;;;;;;;;;;26.22;43.32;98980.96;1679143;84;20159;-70
2022/07/14 16:23:25;;;;;;;;;;;;;;;26.19;43.38;98973.81;1682667;84;20176;-70
2022/07/14 16:25:52;;;;;;;;;;;;;;;26.14;43.32;98977.02;1693041;83;20152;-70
2022/07/14 16:28:19;;;;;;;;;;;;;;;26.08;43.63;98980.37;1698582;84;20433;-70
2022/07/14 16:30:46;;;;;;;;;;;;;;;26.03;43.73;98976.89;1707653;83;21172;-70
2022/07/14 16:33:12;;;;;;;;;;;;;;;25.98;44.01;98975.78;1682466;83;20140;-70
2022/07/14 16:35:39;;;;;;;;;;;;;;;25.93;44.15;98979.45;1676620;83;20424;-70
2022/07/14 16:38:06;;;;;;;;;;;;;;;25.87;44.54;98979.64;1695586;83;20212;-70
2022/07/14 16:40:33;;;;;;;;;;;;;;;25.83;44.87;98980.98;1715675;83;20174;-70
2022/07/14 16:43:00;;;;;;;;;;;;;;;25.79;44.68;98976.99;1704172;83;21229;-70
2022/07/14 16:45:26;;;;;;;;;;;;;;;25.73;45.01;98979.87;1692071;82;20172;-70
2022/07/14 16:47:53;;;;;;;;;;;;;;;25.65;45.31;98978.55;1741768;81;20450;-70
2022/07/14 16:50:19;;;;;;;;;;;;;;;25.56;45.60;98979.56;1690034;83;20146;-70
2022/07/14 16:52:46;;;;;;;;;;;;;;;25.46;45.98;98975.41;1716196;83;20149;-70
2022/07/14 16:55:12;;;;;;;;;;;;;;;25.35;46.02;98976.12;1684564;83;21844;-70
2022/07/14 16:57:39;;;;;;;;;;;;;;;25.29;46.50;98981.27;1710904;83;20170;-69
2022/07/14 17:00:13;;;;;;;;;;;;;;;25.22;46.76;98972.30;1701934;83;20152;-70
2022/07/14 17:02:36;;;;;;;;;;;;;;;25.16;47.12;98971.66;1706812;83;20169;-70
2022/07/14 17:06:18;;;;;;;;;;;;;;;25.13;47.44;98968.83;1695235;83;20177;-70
2022/07/14 17:07:31;;;;;;;;;;;;;;;25.11;47.59;98969.49;1697097;83;21068;-69
2022/07/14 17:09:57;;;;;;;;;;;;;;;25.09;47.83;98975.48;1695834;82;20448;-70
2022/07/14 17:12:25;;;;;;;;;;;;;;;25.06;48.03;98975.31;1683600;83;20152;-69
2022/07/14 17:14:52;;;;;;;;;;;;;;;25.03;48.30;98979.63;1685887;83;20133;-69
2022/07/14 17:17:18;;;;;;;;;;;;;;;25.00;48.40;98985.78;1703522;83;20177;-69
2022/07/14 17:19:45;;;;;;;;;;;;;;;24.95;48.67;98986.30;1694620;83;21797;-69
2022/07/14 17:22:12;;;;;;;;;;;;;;;24.89;48.80;98987.43;1706610;83;20145;-69
2022/07/14 17:24:38;;;;;;;;;;;;;;;24.80;49.08;98991.91;1702413;83;20122;-69
2022/07/14 17:27:05;;;;;;;;;;;;;;;24.71;49.29;98995.07;1698084;83;20508;-69
2022/07/14 17:29:32;;;;;;;;;;;;;;;24.62;49.52;98992.55;1681615;83;20231;-69
2022/07/14 17:31:58;;;;;;;;;;;;;;;24.53;49.73;98996.21;1698654;83;21744;-69
2022/07/14 17:34:25;;;;;;;;;;;;;;;24.44;49.92;99005.16;1686313;83;20440;-69
2022/07/14 17:36:52;;;;;;;;;;;;;;;24.33;50.23;99008.47;1708400;83;20165;-69
2022/07/14 17:39:18;;;;;;;;;;;;;;;24.23;50.46;99004.23;1693110;83;20153;-70
2022/07/14 17:41:45;;;;;;;;;;;;;;;24.13;50.71;99013.69;1683752;83;20170;-69
2022/07/14 17:44:11;;;;;;;;;;;;;;;24.03;51.03;99015.63;1679403;84;21045;-69
2022/07/14 17:46:38;;;;;;;;;;;;;;;23.93;51.32;99013.11;1735751;81;20195;-70
2022/07/14 17:49:05;;;;;;;;;;;;;;;23.84;51.56;99022.02;1719304;81;20287;-70
2022/07/14 17:54:15;;;;;;;;;;;;;;;23.64;52.39;99019.25;1724487;81;20172;-69
2022/07/14 17:56:42;;;;;;;;;;;;;;;23.52;52.94;99021.35;1717143;81;21087;-69
2022/07/14 17:59:10;;;;;;;;;;;;;;;23.41;53.42;99016.26;1716471;81;20160;-70
2022/07/14 18:01:37;;;;;;;;;;;;;;;23.29;54.04;99018.34;1690510;84;20136;-69
2022/07/14 18:04:04;;;;;;;;;;;;;;;23.19;54.56;99018.92;1684136;83;20177;-69
2022/07/14 18:06:31;;;;;;;;;;;;;;;23.08;55.14;99021.83;1712117;81;20185;-69
2022/07/14 18:08:58;;;;;;;;;;;;;;;22.95;55.75;99023.56;1682717;83;21115;-69
2022/07/14 18:11:25;;;;;;;;;;;;;;;22.83;56.06;99033.20;1674508;85;20117;-70
2022/07/14 18:13:52;;;;;;;;;;;;;;;22.72;56.32;99028.95;1688601;83;20148;-70
2022/07/14 18:16:19;;;;;;;;;;;;;;;22.62;56.81;99034.80;1675260;84;20151;-70
2022/07/14 18:18:47;;;;;;;;;;;;;;;22.51;57.56;99028.40;1689367;83;20124;-70
2022/07/14 18:21:13;;;;;;;;;;;;;;;22.39;58.43;99033.06;1677401;83;21117;-70
2022/07/14 18:23:39;;;;;;;;;;;;;;;22.29;59.12;99048.20;1664662;83;20243;-70
2022/07/14 18:26:06;;;;;;;;;;;;;;;22.16;59.79;99044.58;1722798;82;20474;-69
2022/07/14 18:28:33;;;;;;;;;;;;;;;22.05;60.63;99046.57;1718861;81;20197;-69
2022/07/14 18:30:59;;;;;;;;;;;;;;;21.93;61.19;99052.03;1685480;83;20185;-69
2022/07/14 18:33:26;;;;;;;;;;;;;;;21.82;61.89;99047.39;1691279;83;21136;-69
2022/07/14 18:35:52;;;;;;;;;;;;;;;21.70;62.46;99050.72;1689604;83;20154;-69
2022/07/14 18:38:20;;;;;;;;;;;;;;;21.58;62.91;99046.07;1683281;83;20436;-70
2022/07/14 18:40:46;;;;;;;;;;;;;;;21.46;63.84;99041.94;1703721;83;20162;-69
2022/07/14 18:43:13;;;;;;;;;;;;;;;21.36;64.62;99045.59;1730967;82;20459;-70
2022/07/14 18:48:24;;;;;;;;;;;;;;;21.15;65.75;99040.44;1729826;81;20462;-70
2022/07/14 18:50:50;;;;;;;;;;;;;;;21.05;66.50;99042.23;1716513;81;20165;-69
2022/07/14 18:53:17;;;;;;;;;;;;;;;20.95;67.00;99040.45;1736705;82;20212;-69
2022/07/14 18:55:44;;;;;;;;;;;;;;;20.86;68.00;99050.52;1713350;81;20149;-69
2022/07/14 18:58:10;;;;;;;;;;;;;;;20.77;69.04;99054.50;1698179;83;21788;-69
2022/07/14 19:00:36;;;;;;;;;;;;;;;20.66;69.45;99059.41;1681247;83;20155;-69
2022/07/14 19:03:03;;;;;;;;;;;;;;;20.56;69.09;99061.21;1704781;83;20152;-69